Stotesbury, Missouri
Current Conditions -  °F | °C
As of 4:15 AM on Friday 31 Oct 2014 (Local Time) from KPTS Reporting Station
Clear Clear  
Wind Chill: 51°   Ceiling: Unl
Heat Index: 51°   Visibility: 10mi
Dew Point: 44°   Wind: 12mph
Humidity: 77%   Direction: 360°N
Pressure: 30.23"   Gusts: 17mph
Location:  38.0389°N, 94.5457°W
Report Text: KPTS 310915Z AUTO 36010G15KT 10SM CLR 11/07 A3023 RMK AO2 T01050067
Loading
Personal Weather Stations






























Interactive Weather Map
Tropical Storm Tracking
New forecast layout! Learn more

10-Day Weather Forecast

Advertisements
Track Severe Weather on mobile